• Join FlightAware (Why Join?)
  • Login
  • US Flag 
09:04AM EDT


 

Airport Tracker/Info


-or-


 

Live Flight TrackerFlight Track Log ✈ GGN7280 ✈ 23-May-2013 ✈ CYYZ - KALB

Flight Track Log - Related Links

Times and Time Zones

All times are in EDT time to prevent confusion due to time zone crossing. See the GGN7280 flight status page for this flight to view local times or setup timezone preferences in your user account.

Time Position Orientation Groundspeed Altitude Reporting Facility
EDT Latitude Longitude Course Direction KTS MPH feet Rate Location/Type
09:32AM 43.6667 -79.5833 180° South 60 69 1,000  Level Toronto Center
09:33AM 43.6167 -79.5833 180° South 170 196 2,600 1,800 Climbing Toronto Center
09:34AM 43.5833 -79.5667 160° South 180 207 4,700 1,920 Climbing Toronto Center
09:35AM 43.5667 -79.4667 103° East 210 242 6,500 1,680 Climbing Toronto Center
09:36AM 43.5500 -79.4000 109° East 220 253 8,100 1,560 Climbing Toronto Center
09:37AM 43.5333 -79.3167 105° East 230 265 9,700 1,500 Climbing Toronto Center
09:38AM 43.5167 -79.2167 103° East 240 276 11,200 1,500 Climbing Toronto Center
09:39AM 43.5167 -79.1333 90° East 240 276 12,800 1,500 Climbing Toronto Center
09:40AM 43.5000 -79.0333 103° East 250 288 14,300 1,560 Climbing Toronto Center
09:41AM 43.5000 -78.9500 90° East 240 276 16,000 1,500 Climbing Toronto Center
09:42AM 43.4833 -78.8500 103° East 240 276 17,300 1,320 Climbing Toronto Center
09:43AM 43.4667 -78.7667 105° East 250 288 18,700 1,320 Climbing Toronto Center
09:44AM 43.4667 -78.6667 90° East 250 288 20,000 1,200 Climbing Toronto Center
09:45AM 43.4500 -78.5833 105° East 250 288 21,200 1,080 Climbing Toronto Center
09:45AM 43.4492 -78.5589 93° East 238 274 21,500 900 Climbing Cleveland Center
09:46AM 43.4392 -78.4675 99° East 238 274 22,500 720 Climbing Cleveland Center
09:47AM 43.4247 -78.3708 102° East 238 274 23,000 240 Climbing Cleveland Center
09:48AM 43.4125 -78.2656 99° East 251 289 23,000  Level Cleveland Center
09:49AM 43.3978 -78.1575 101° East 274 315 23,000  Level Cleveland Center
09:50AM 43.3828 -78.0467 101° East 286 329 23,000  Level Cleveland Center
09:51AM 43.3700 -77.9386 99° East 291 335 23,000  Level Cleveland Center
09:52AM 43.3550 -77.8281 101° East 291 335 23,000  Level Cleveland Center
09:54AM 43.3167 -77.6167 104° East 290 334 23,000  Level Toronto Center
09:54AM 43.3244 -77.6097 33° Northeast 291 335 23,000  Level Cleveland Center
09:55AM 43.3111 -77.4989 99° East 291 335 23,000  Level Cleveland Center
09:57AM 43.2667 -77.3000 107° East 290 334 23,000  Level Toronto Center
09:58AM 43.2500 -77.1833 101° East 290 334 23,000  Level Toronto Center
09:59AM 43.2500 -77.0667 90° East 290 334 23,000  Level Toronto Center
10:00AM 43.2333 -76.9833 105° East 290 334 23,000  Level Toronto Center
10:01AM 43.2167 -76.8667 101° East 290 334 23,000  Level Toronto Center
10:02AM 43.2000 -76.7500 101° East 290 334 23,000  Level Toronto Center
10:03AM 43.1833 -76.6333 101° East 300 345 23,000  Level Toronto Center
10:04AM 43.1667 -76.5167 101° East 290 334 23,000  Level Toronto Center
10:05AM 43.1500 -76.4167 103° East 290 334 23,000  Level Toronto Center
10:06AM 43.1469 -76.3308 93° East 284 327 23,000  Level Boston Center
10:07AM 43.1403 -76.2164 95° East 284 327 23,000  Level Boston Center
10:08AM 43.1356 -76.1022 93° East 294 338 23,000 -300 Level Boston Center
10:09AM 43.1269 -75.9850 96° East 294 338 22,400 -900 Descending Boston Center
10:10AM 43.1222 -75.8681 93° East 300 345 21,300 -1,140 Descending Boston Center
10:11AM 43.1131 -75.7508 96° East 305 351 20,200 -1,140 Descending Boston Center
10:12AM 43.1058 -75.6369 95° East 305 351 19,100 -1,200 Descending Boston Center
10:13AM 43.0986 -75.5197 95° East 305 351 17,800 -1,200 Descending Boston Center
10:14AM 43.0914 -75.4028 95° East 310 357 16,700 -1,140 Descending Boston Center
10:15AM 43.0839 -75.2831 95° East 310 357 15,600 -1,140 Descending Boston Center
10:16AM 43.0764 -75.1689 95° East 310 357 14,500 -1,200 Descending Boston Center
10:17AM 43.0706 -75.0608 94° East 297 342 13,300 -1,380 Descending Boston Center
10:18AM 43.0639 -74.9864 97° East 322 371 12,400 -1,080 Descending Boston Center
10:19AM 43.0606 -74.9467 97° East 300 345 12,000 -1,200 Descending Boston Center
10:19AM 43.0600 -74.8756 91° East 297 342 11,200 -1,020 Descending Boston Center
10:20AM 43.0533 -74.7986 97° East 295 339 11,000 -240 Descending Boston Center
10:20AM 43.0500 -74.7614 97° East 289 333 11,000  Level Boston Center
10:21AM 43.0450 -74.6903 95° East 295 339 11,000  Level Boston Center
10:21AM 43.0417 -74.6531 97° East 287 330 11,000  Level Boston Center
10:22AM 43.0356 -74.5392 94° East 287 330 11,000  Level Boston Center
10:23AM 43.0303 -74.4767 97° East 290 334 11,000  Level Boston Center
10:23AM 43.0269 -74.4339 96° East 279 321 11,000 -960 Level Boston Center
10:24AM 43.0175 -74.3711 102° East 285 328 9,900 -1,740 Descending Boston Center
10:25AM 42.9986 -74.2514 102° East 285 328 7,900 -1,800 Descending Boston Center
10:26AM 42.9775 -74.1344 104° East 285 328 6,400 -1,260 Descending Boston Center
10:27AM 42.9622 -74.0403 102° East 285 328 5,200 -1,380 Descending Boston Center
10:28AM 42.9431 -73.9178 102° East 241 277 3,400 -1,560 Descending Boston Center
10:29AM 42.9150 -73.8406 116° Southeast 227 261 2,100 -720 Descending Boston Center
10:30AM 42.8714 -73.8111 154° Southeast 186 214 2,000 -60 Descending Boston Center
10:31AM 42.8367 -73.7622 134° Southeast 186 214 2,000 8,460 Level Boston Center
10:32AM 42.7956 -73.7189 142° Southeast 186 214 19,000 16,980 Climbing Boston Center
10:34AM 42.7491 -73.8020 North  Level Estimated
10:41AM 42.7491 -73.8020 North  Level Estimated
10:42AM 42.7491 -73.8020 North  Level Estimated